Time;durP1;ratioP1;P1;durP2;ratioP2;P2;SDS_P1;SDS_P2;PMS_P1;PMS_P2;Temp;Humidity;BMP_temperature;BMP_pressure;BME280_temperature;BME280_humidity;BME280_pressure;Samples;Min_cycle;Max_cycle;Signal;HPM_P1;HPM_P2
2021/06/13 00:06:24;;;;;;;9.2;6.2;;;;;;;12.94;100;98473.52;;;;
2021/06/13 00:16:23;;;;;;;10.8;7.3;;;;;;;13.06;100;98461.98;;;;
2021/06/13 00:26:22;;;;;;;7.1;5.7;;;;;;;13.11;100;98464.55;;;;
2021/06/13 00:36:21;;;;;;;8.9;7.6;;;;;;;13.16;100;98464.34;;;;
2021/06/13 00:46:20;;;;;;;10;7.3;;;;;;;13.26;100;98468.61;;;;
2021/06/13 00:56:19;;;;;;;8.2;6;;;;;;;13.22;100;98462.26;;;;
2021/06/13 01:06:18;;;;;;;10.2;7.2;;;;;;;13.22;100;98465.77;;;;
2021/06/13 01:16:17;;;;;;;7.6;6.1;;;;;;;13.25;100;98456.19;;;;
2021/06/13 01:26:16;;;;;;;10.9;8;;;;;;;13.24;100;98449.98;;;;
2021/06/13 01:36:15;;;;;;;9.2;7.3;;;;;;;13.28;100;98439.29;;;;
2021/06/13 01:46:14;;;;;;;10.8;6.6;;;;;;;13.24;100;98447.27;;;;
2021/06/13 01:56:13;;;;;;;17.3;7.6;;;;;;;13.28;100;98452.83;;;;
2021/06/13 02:06:12;;;;;;;8.7;7.8;;;;;;;13.13;100;98445.27;;;;
2021/06/13 02:16:11;;;;;;;14.1;7.1;;;;;;;13.03;100;98465.34;;;;
2021/06/13 02:26:10;;;;;;;9.8;7.9;;;;;;;12.99;100;98465.2;;;;
2021/06/13 02:36:09;;;;;;;9.6;7.4;;;;;;;12.86;100;98487.06;;;;
2021/06/13 02:46:09;;;;;;;8.5;5.4;;;;;;;12.55;100;98493.53;;;;
2021/06/13 02:56:11;;;;;;;6.2;3.5;;;;;;;12.42;100;98504.55;;;;
2021/06/13 03:06:06;;;;;;;5.2;4;;;;;;;12.35;100;98539.37;;;;
2021/06/13 03:16:05;;;;;;;4.8;2.9;;;;;;;12.17;100;98552.09;;;;
2021/06/13 03:26:04;;;;;;;12.3;3.9;;;;;;;12.13;100;98577.35;;;;
2021/06/13 03:36:04;;;;;;;6.7;4.1;;;;;;;12.09;100;98594.2;;;;
2021/06/13 03:46:03;;;;;;;6.6;4;;;;;;;12.2;100;98604.69;;;;
2021/06/13 03:56:04;;;;;;;5;2.3;;;;;;;12.33;100;98625.36;;;;
2021/06/13 04:06:00;;;;;;;6.9;2.8;;;;;;;12.4;100;98625.67;;;;
2021/06/13 04:15:59;;;;;;;6.1;3.9;;;;;;;12.59;100;98623.45;;;;
2021/06/13 04:25:59;;;;;;;6.5;3.8;;;;;;;12.64;100;98628.69;;;;
2021/06/13 04:35:57;;;;;;;7;3.6;;;;;;;12.82;100;98645.69;;;;
2021/06/13 04:45:57;;;;;;;4.7;2.4;;;;;;;13.24;100;98639.43;;;;
2021/06/13 04:55:56;;;;;;;10.4;5.5;;;;;;;13.22;100;98638.97;;;;
2021/06/13 05:05:55;;;;;;;4.5;3.4;;;;;;;13.34;100;98649.1;;;;
2021/06/13 05:15:54;;;;;;;5.5;3.8;;;;;;;13.06;100;98637.85;;;;
2021/06/13 05:25:53;;;;;;;13.8;5.5;;;;;;;12.88;100;98660.63;;;;
2021/06/13 05:35:53;;;;;;;5.7;3.5;;;;;;;13.03;100;98676.38;;;;
2021/06/13 05:45:51;;;;;;;7;4.4;;;;;;;13.06;100;98675.73;;;;
2021/06/13 05:55:50;;;;;;;7.4;4.5;;;;;;;13.14;100;98680.38;;;;
2021/06/13 06:05:50;;;;;;;6.2;2.9;;;;;;;13.27;100;98703.73;;;;
2021/06/13 06:15:49;;;;;;;8.4;2.8;;;;;;;13.37;100;98708.81;;;;
2021/06/13 06:25:48;;;;;;;5.5;2.9;;;;;;;13.68;100;98713.16;;;;
2021/06/13 06:35:47;;;;;;;6;2.6;;;;;;;14.13;100;98724.31;;;;
2021/06/13 06:45:46;;;;;;;7.3;3;;;;;;;14.43;100;98728.63;;;;
2021/06/13 06:55:45;;;;;;;7.7;3;;;;;;;15.24;100;98725.42;;;;
2021/06/13 07:05:45;;;;;;;10.9;2.9;;;;;;;14.92;100;98733.21;;;;
2021/06/13 07:15:44;;;;;;;5.4;3;;;;;;;14.33;100;98745.25;;;;
2021/06/13 07:25:43;;;;;;;11.2;2.8;;;;;;;14.35;100;98754.66;;;;
2021/06/13 07:35:43;;;;;;;5.8;3.3;;;;;;;14.76;100;98764.77;;;;
2021/06/13 07:45:42;;;;;;;6.6;3.7;;;;;;;14.83;100;98778.59;;;;
2021/06/13 07:55:41;;;;;;;8;2.3;;;;;;;14.86;100;98783.36;;;;
2021/06/13 08:05:42;;;;;;;4.5;2.4;;;;;;;14.26;100;98783.72;;;;
2021/06/13 08:15:40;;;;;;;6;2;;;;;;;14.17;100;98792.98;;;;
2021/06/13 08:25:39;;;;;;;4.7;2.2;;;;;;;14.76;100;98804.66;;;;
2021/06/13 08:35:38;;;;;;;6.9;2.6;;;;;;;15.08;99.37793;98809.39;;;;
2021/06/13 08:45:38;;;;;;;4.2;1.7;;;;;;;15.11;97.6416;98835.88;;;;
2021/06/13 08:55:37;;;;;;;4.6;1.8;;;;;;;15.07;97.49512;98837.66;;;;
2021/06/13 09:05:36;;;;;;;4;2;;;;;;;15.57;94.62109;98834.88;;;;
2021/06/13 09:15:36;;;;;;;6.2;2.1;;;;;;;15.52;91.68164;98846.74;;;;
2021/06/13 09:25:35;;;;;;;5.3;1.8;;;;;;;14.98;90.12891;98845.88;;;;
2021/06/13 09:35:35;;;;;;;4.9;1.8;;;;;;;15.71;93.44727;98865.28;;;;
2021/06/13 09:45:34;;;;;;;15.1;2.6;;;;;;;15.89;93.08789;98868.63;;;;
2021/06/13 09:55:34;;;;;;;3.8;2.1;;;;;;;15.66;88.96973;98889.13;;;;
2021/06/13 10:05:33;;;;;;;4.1;1.8;;;;;;;16.27;90.82227;98881.98;;;;
2021/06/13 10:15:33;;;;;;;4.9;2.7;;;;;;;16.08;86.02539;98896.89;;;;
2021/06/13 10:25:32;;;;;;;4.4;1.6;;;;;;;16.64;87.08203;98913.56;;;;
2021/06/13 10:35:33;;;;;;;5.8;1.9;;;;;;;16.2;90.80957;98917.09;;;;
2021/06/13 10:45:31;;;;;;;6.2;1.9;;;;;;;16.26;86.61719;98921.17;;;;
2021/06/13 10:55:31;;;;;;;5.2;1.4;;;;;;;17.43;85.19043;98914.86;;;;
2021/06/13 11:05:31;;;;;;;6.7;2.4;;;;;;;17.63;78.58691;98911.23;;;;
2021/06/13 11:15:31;;;;;;;5.7;1.9;;;;;;;17.35;80.62207;98922.05;;;;
2021/06/13 11:25:30;;;;;;;7.1;2.3;;;;;;;17.07;79.85059;98921.97;;;;
2021/06/13 11:35:30;;;;;;;6.6;2.4;;;;;;;17.44;82.0332;98930.08;;;;
2021/06/13 11:45:29;;;;;;;8.1;2.9;;;;;;;17.82;82.56152;98926.93;;;;
2021/06/13 11:55:29;;;;;;;4.6;1.9;;;;;;;17.94;83.34082;98933.15;;;;
2021/06/13 12:05:30;;;;;;;8.3;3.1;;;;;;;17.9;82.1084;98934.98;;;;
2021/06/13 12:15:29;;;;;;;7.6;2.4;;;;;;;17.62;82.40918;98930.64;;;;
2021/06/13 12:35:28;;;;;;;7.4;2.9;;;;;;;17.25;80.6709;98941.56;;;;
2021/06/13 12:45:28;;;;;;;6.3;2.2;;;;;;;17.97;80.49414;98940.63;;;;
2021/06/13 12:55:28;;;;;;;5.1;2.8;;;;;;;17.84;78.63574;98960.88;;;;
2021/06/13 13:05:28;;;;;;;7.5;2.8;;;;;;;17.57;77.08594;98950.73;;;;
2021/06/13 13:15:28;;;;;;;4.4;2.2;;;;;;;17.85;79.8877;98957.02;;;;
2021/06/13 13:25:27;;;;;;;6.1;2;;;;;;;18.83;79.39551;98958.13;;;;
2021/06/13 13:35:27;;;;;;;5.9;2.9;;;;;;;18.31;75.1123;98971.16;;;;
2021/06/13 13:45:27;;;;;;;5.5;2.8;;;;;;;17.81;78.1709;98958.05;;;;
2021/06/13 13:55:27;;;;;;;6.9;3.2;;;;;;;17.66;79.39551;98970.5;;;;
2021/06/13 14:05:26;;;;;;;4.8;2.7;;;;;;;17.05;81.88379;98973.25;;;;
2021/06/13 14:15:26;;;;;;;4.5;1.9;;;;;;;17.08;80.03418;98974.48;;;;
2021/06/13 14:25:26;;;;;;;6.5;2.8;;;;;;;18.32;77.51465;98975.48;;;;
2021/06/13 14:35:25;;;;;;;8.4;3.9;;;;;;;18.6;78.13867;98970.81;;;;
2021/06/13 14:45:25;;;;;;;11.4;2.9;;;;;;;18.01;79.63965;98965.28;;;;
2021/06/13 14:55:25;;;;;;;7.4;2;;;;;;;17.76;75.90332;98964.56;;;;
2021/06/13 15:05:25;;;;;;;5.6;2.4;;;;;;;17.69;78.45996;98964.35;;;;
2021/06/13 15:15:25;;;;;;;4.7;2.2;;;;;;;17.32;78.98926;98976.44;;;;
2021/06/13 15:25:24;;;;;;;16.9;2.7;;;;;;;17.19;79.79004;98974.83;;;;
2021/06/13 15:35:24;;;;;;;7;2.2;;;;;;;18.62;77.54395;98965.78;;;;
2021/06/13 15:45:24;;;;;;;8.3;2.9;;;;;;;17.81;77.02441;98964.3;;;;
2021/06/13 15:55:32;;;;;;;5.2;2.8;;;;;;;18.63;71.7959;98972.84;;;;
2021/06/13 16:05:23;;;;;;;6.6;2.2;;;;;;;19.32;71.20313;98968.66;;;;
2021/06/13 16:15:23;;;;;;;5.4;2.4;;;;;;;19.93;64.74707;98977.84;;;;
2021/06/13 16:25:23;;;;;;;6;2.3;;;;;;;21.03;61.27637;98975.22;;;;
2021/06/13 16:35:24;;;;;;;5.8;2.8;;;;;;;21.96;59.05176;98982.91;;;;
2021/06/13 16:45:26;;;;;;;6.7;2.5;;;;;;;23.94;53.62695;99001.99;;;;
2021/06/13 16:55:24;;;;;;;10;2.8;;;;;;;21.91;57.19434;99000.48;;;;
2021/06/13 17:05:25;;;;;;;6.9;3.5;;;;;;;22.04;57.06055;99018.28;;;;
2021/06/13 17:15:25;;;;;;;6.6;2.9;;;;;;;18.51;67.12305;99019.3;;;;
2021/06/13 17:25:28;;;;;;;7.2;2.6;;;;;;;17.18;71.88379;99023.06;;;;
2021/06/13 17:35:25;;;;;;;4.9;2.1;;;;;;;19.6;66.2959;99034.95;;;;
2021/06/13 17:45:25;;;;;;;10.9;2.4;;;;;;;20.32;64.88574;99043.56;;;;
2021/06/13 17:55:26;;;;;;;7.6;3.1;;;;;;;20.15;64.68555;99033.02;;;;
2021/06/13 18:05:25;;;;;;;7.7;2.7;;;;;;;17.44;72.71582;99044.53;;;;
2021/06/13 18:15:25;;;;;;;7.5;2.6;;;;;;;15.89;79.66016;99051.55;;;;
2021/06/13 18:25:24;;;;;;;4.3;2.2;;;;;;;14.9;83.58984;99068.45;;;;
2021/06/13 18:35:24;;;;;;;6.1;2.6;;;;;;;14.28;86.33398;99076.98;;;;
2021/06/13 18:45:23;;;;;;;10.5;3.4;;;;;;;13.8;89.15332;99090.66;;;;
2021/06/13 18:55:22;;;;;;;5.2;2.7;;;;;;;13.32;93.35156;99093.39;;;;
2021/06/13 19:05:21;;;;;;;7.4;3;;;;;;;12.95;96.6123;99107.33;;;;
2021/06/13 19:15:20;;;;;;;6.2;2.6;;;;;;;12.68;98.83008;99124.52;;;;
2021/06/13 19:25:20;;;;;;;7.7;2.7;;;;;;;12.46;100;99132.64;;;;
2021/06/13 19:35:19;;;;;;;7.4;3;;;;;;;12.34;100;99143.18;;;;
2021/06/13 19:45:18;;;;;;;8.7;3.6;;;;;;;12.12;100;99152.03;;;;
2021/06/13 19:55:17;;;;;;;6.7;3;;;;;;;11.95;100;99143.76;;;;
2021/06/13 20:05:15;;;;;;;5.7;2.4;;;;;;;11.8;100;99141.39;;;;
2021/06/13 20:15:14;;;;;;;9.3;6.1;;;;;;;11.7;100;99157.78;;;;
2021/06/13 20:25:13;;;;;;;8.2;4.2;;;;;;;11.58;100;99156.38;;;;
2021/06/13 20:35:12;;;;;;;6.5;3.4;;;;;;;11.42;100;99167.77;;;;
2021/06/13 20:45:11;;;;;;;7.3;3.6;;;;;;;11.41;100;99166.95;;;;
2021/06/13 20:55:10;;;;;;;5.9;3.3;;;;;;;11.47;100;99173.05;;;;
2021/06/13 21:05:09;;;;;;;11;3.4;;;;;;;11.58;100;99174.47;;;;
2021/06/13 21:15:08;;;;;;;10;5.4;;;;;;;11.68;100;99171.56;;;;
2021/06/13 21:25:07;;;;;;;19.3;4.4;;;;;;;11.76;100;99181.7;;;;
2021/06/13 21:35:06;;;;;;;8.4;3.6;;;;;;;11.81;100;99175.38;;;;
2021/06/13 21:45:05;;;;;;;13;5.1;;;;;;;11.84;100;99178.28;;;;
2021/06/13 21:55:04;;;;;;;7;4;;;;;;;11.78;100;99174.09;;;;
2021/06/13 22:05:03;;;;;;;8.4;4.2;;;;;;;11.79;100;99188.4;;;;
2021/06/13 22:15:02;;;;;;;7.7;3.4;;;;;;;11.77;100;99187.88;;;;
2021/06/13 22:25:01;;;;;;;9.4;3.1;;;;;;;11.7;100;99190.95;;;;
2021/06/13 22:35:00;;;;;;;9.3;3.8;;;;;;;11.64;100;99197.55;;;;
2021/06/13 22:44:59;;;;;;;9;4.8;;;;;;;11.65;100;99198.36;;;;
2021/06/13 22:54:58;;;;;;;12.4;4.8;;;;;;;11.55;100;99205.56;;;;
2021/06/13 23:04:57;;;;;;;7.5;4.1;;;;;;;11.53;100;99190.74;;;;
2021/06/13 23:14:55;;;;;;;8.6;4.4;;;;;;;11.41;100;99188.55;;;;
2021/06/13 23:24:54;;;;;;;14.1;5.3;;;;;;;11.33;100;99193.82;;;;
2021/06/13 23:34:53;;;;;;;15.4;8.7;;;;;;;11.22;100;99195.09;;;;
2021/06/13 23:44:52;;;;;;;5.7;3.5;;;;;;;11.2;100;99189.2;;;;
2021/06/13 23:54:51;;;;;;;8;5.1;;;;;;;11.14;100;99183.11;;;;
